sensor_id;sensor_type;location;lat;lon;timestamp;P1;durP1;ratioP1;P2;durP2;ratioP2
3849;SDS011;1940;51.052;13.678;2023-05-10T00:00:56;3.57;;;2.80;;
3849;SDS011;1940;51.052;13.678;2023-05-10T00:03:22;5.70;;;3.00;;
3849;SDS011;1940;51.052;13.678;2023-05-10T00:05:47;5.13;;;2.63;;
3849;SDS011;1940;51.052;13.678;2023-05-10T00:08:13;3.83;;;2.60;;
3849;SDS011;1940;51.052;13.678;2023-05-10T00:10:38;5.70;;;2.40;;
3849;SDS011;1940;51.052;13.678;2023-05-10T00:13:05;7.00;;;2.40;;
3849;SDS011;1940;51.052;13.678;2023-05-10T00:15:30;4.03;;;2.90;;
3849;SDS011;1940;51.052;13.678;2023-05-10T00:17:56;3.20;;;2.60;;
3849;SDS011;1940;51.052;13.678;2023-05-10T00:20:21;8.10;;;2.70;;
3849;SDS011;1940;51.052;13.678;2023-05-10T00:22:47;4.83;;;2.40;;
3849;SDS011;1940;51.052;13.678;2023-05-10T00:25:12;3.60;;;2.70;;
3849;SDS011;1940;51.052;13.678;2023-05-10T00:27:38;4.37;;;2.70;;
3849;SDS011;1940;51.052;13.678;2023-05-10T00:30:04;4.20;;;3.00;;
3849;SDS011;1940;51.052;13.678;2023-05-10T00:32:31;3.60;;;2.40;;
3849;SDS011;1940;51.052;13.678;2023-05-10T00:34:56;3.93;;;2.97;;
3849;SDS011;1940;51.052;13.678;2023-05-10T00:37:22;3.53;;;2.83;;
3849;SDS011;1940;51.052;13.678;2023-05-10T00:39:47;3.33;;;2.50;;
3849;SDS011;1940;51.052;13.678;2023-05-10T00:42:13;3.23;;;2.70;;
3849;SDS011;1940;51.052;13.678;2023-05-10T00:44:38;2.60;;;2.40;;
3849;SDS011;1940;51.052;13.678;2023-05-10T00:47:04;3.67;;;2.87;;
3849;SDS011;1940;51.052;13.678;2023-05-10T00:49:29;5.40;;;2.90;;
3849;SDS011;1940;51.052;13.678;2023-05-10T00:51:56;3.17;;;2.60;;
3849;SDS011;1940;51.052;13.678;2023-05-10T00:54:21;4.80;;;2.60;;
3849;SDS011;1940;51.052;13.678;2023-05-10T00:56:47;3.83;;;2.53;;
3849;SDS011;1940;51.052;13.678;2023-05-10T00:59:17;3.50;;;2.40;;
3849;SDS011;1940;51.052;13.678;2023-05-10T01:01:44;4.73;;;2.70;;
3849;SDS011;1940;51.052;13.678;2023-05-10T01:04:11;5.20;;;3.00;;
3849;SDS011;1940;51.052;13.678;2023-05-10T01:06:38;3.70;;;2.43;;
3849;SDS011;1940;51.052;13.678;2023-05-10T01:09:04;5.43;;;2.50;;
3849;SDS011;1940;51.052;13.678;2023-05-10T01:11:31;3.10;;;2.47;;
3849;SDS011;1940;51.052;13.678;2023-05-10T01:13:58;2.90;;;2.47;;
3849;SDS011;1940;51.052;13.678;2023-05-10T01:16:24;2.70;;;2.10;;
3849;SDS011;1940;51.052;13.678;2023-05-10T01:18:51;6.10;;;2.70;;
3849;SDS011;1940;51.052;13.678;2023-05-10T01:21:37;2.73;;;2.30;;
3849;SDS011;1940;51.052;13.678;2023-05-10T01:27:45;3.13;;;2.40;;
3849;SDS011;1940;51.052;13.678;2023-05-10T01:30:02;2.80;;;2.50;;
3849;SDS011;1940;51.052;13.678;2023-05-10T01:35:45;3.03;;;2.50;;
3849;SDS011;1940;51.052;13.678;2023-05-10T01:40:52;2.23;;;2.00;;
3849;SDS011;1940;51.052;13.678;2023-05-10T01:44:29;2.80;;;2.43;;
3849;SDS011;1940;51.052;13.678;2023-05-10T01:46:35;3.00;;;2.30;;
3849;SDS011;1940;51.052;13.678;2023-05-10T01:49:02;3.87;;;2.70;;
3849;SDS011;1940;51.052;13.678;2023-05-10T01:51:36;3.20;;;2.30;;
3849;SDS011;1940;51.052;13.678;2023-05-10T01:54:11;3.87;;;2.60;;
3849;SDS011;1940;51.052;13.678;2023-05-10T01:56:38;2.80;;;2.20;;
3849;SDS011;1940;51.052;13.678;2023-05-10T01:59:06;6.70;;;3.10;;
3849;SDS011;1940;51.052;13.678;2023-05-10T02:01:40;4.73;;;2.87;;
3849;SDS011;1940;51.052;13.678;2023-05-10T02:04:07;6.50;;;2.20;;
3849;SDS011;1940;51.052;13.678;2023-05-10T02:06:34;3.10;;;2.53;;
3849;SDS011;1940;51.052;13.678;2023-05-10T02:09:01;3.90;;;2.60;;
3849;SDS011;1940;51.052;13.678;2023-05-10T02:11:28;3.60;;;2.37;;
3849;SDS011;1940;51.052;13.678;2023-05-10T02:13:55;5.80;;;2.33;;
3849;SDS011;1940;51.052;13.678;2023-05-10T02:16:23;2.80;;;2.40;;
3849;SDS011;1940;51.052;13.678;2023-05-10T02:18:51;9.30;;;2.40;;
3849;SDS011;1940;51.052;13.678;2023-05-10T02:21:19;3.70;;;2.33;;
3849;SDS011;1940;51.052;13.678;2023-05-10T02:23:46;8.13;;;2.33;;
3849;SDS011;1940;51.052;13.678;2023-05-10T02:26:14;6.23;;;2.40;;
3849;SDS011;1940;51.052;13.678;2023-05-10T02:28:41;3.53;;;2.47;;
3849;SDS011;1940;51.052;13.678;2023-05-10T02:31:07;2.80;;;2.20;;
3849;SDS011;1940;51.052;13.678;2023-05-10T02:33:35;5.80;;;2.57;;
3849;SDS011;1940;51.052;13.678;2023-05-10T02:36:03;2.93;;;2.50;;
3849;SDS011;1940;51.052;13.678;2023-05-10T02:38:30;2.33;;;2.00;;
3849;SDS011;1940;51.052;13.678;2023-05-10T02:40:57;4.30;;;2.60;;
3849;SDS011;1940;51.052;13.678;2023-05-10T02:43:24;2.83;;;2.53;;
3849;SDS011;1940;51.052;13.678;2023-05-10T02:45:50;9.00;;;2.77;;
3849;SDS011;1940;51.052;13.678;2023-05-10T02:48:16;3.37;;;2.53;;
3849;SDS011;1940;51.052;13.678;2023-05-10T02:50:43;5.90;;;2.43;;
3849;SDS011;1940;51.052;13.678;2023-05-10T02:53:11;4.03;;;2.50;;
3849;SDS011;1940;51.052;13.678;2023-05-10T02:55:41;4.00;;;2.67;;
3849;SDS011;1940;51.052;13.678;2023-05-10T02:58:10;2.77;;;2.33;;
3849;SDS011;1940;51.052;13.678;2023-05-10T03:00:36;2.90;;;2.30;;
3849;SDS011;1940;51.052;13.678;2023-05-10T03:03:01;3.00;;;2.50;;
3849;SDS011;1940;51.052;13.678;2023-05-10T03:05:27;2.60;;;2.27;;
3849;SDS011;1940;51.052;13.678;2023-05-10T03:07:52;4.40;;;3.20;;
3849;SDS011;1940;51.052;13.678;2023-05-10T03:10:19;3.00;;;2.70;;
3849;SDS011;1940;51.052;13.678;2023-05-10T03:18:12;2.87;;;2.57;;
3849;SDS011;1940;51.052;13.678;2023-05-10T03:20:47;3.70;;;2.57;;
3849;SDS011;1940;51.052;13.678;2023-05-10T03:23:41;6.93;;;2.70;;
3849;SDS011;1940;51.052;13.678;2023-05-10T03:26:04;2.67;;;2.40;;
3849;SDS011;1940;51.052;13.678;2023-05-10T03:28:32;2.67;;;2.30;;
3849;SDS011;1940;51.052;13.678;2023-05-10T03:30:59;3.67;;;2.60;;
3849;SDS011;1940;51.052;13.678;2023-05-10T03:33:25;6.30;;;2.93;;
3849;SDS011;1940;51.052;13.678;2023-05-10T03:35:50;4.23;;;2.60;;
3849;SDS011;1940;51.052;13.678;2023-05-10T03:38:16;5.83;;;2.73;;
3849;SDS011;1940;51.052;13.678;2023-05-10T03:40:41;3.93;;;2.40;;
3849;SDS011;1940;51.052;13.678;2023-05-10T03:43:07;3.07;;;2.47;;
3849;SDS011;1940;51.052;13.678;2023-05-10T03:45:32;5.43;;;2.50;;
3849;SDS011;1940;51.052;13.678;2023-05-10T03:47:58;4.70;;;2.90;;
3849;SDS011;1940;51.052;13.678;2023-05-10T03:50:23;7.70;;;2.60;;
3849;SDS011;1940;51.052;13.678;2023-05-10T03:52:49;4.20;;;2.50;;
3849;SDS011;1940;51.052;13.678;2023-05-10T03:55:15;3.20;;;2.63;;
3849;SDS011;1940;51.052;13.678;2023-05-10T03:57:41;4.40;;;2.40;;
3849;SDS011;1940;51.052;13.678;2023-05-10T04:00:07;2.37;;;2.17;;
3849;SDS011;1940;51.052;13.678;2023-05-10T04:02:33;2.60;;;2.30;;
3849;SDS011;1940;51.052;13.678;2023-05-10T04:04:58;3.43;;;2.50;;
3849;SDS011;1940;51.052;13.678;2023-05-10T04:07:24;5.80;;;2.60;;
3849;SDS011;1940;51.052;13.678;2023-05-10T04:09:49;4.60;;;2.67;;
3849;SDS011;1940;51.052;13.678;2023-05-10T04:12:15;4.67;;;2.37;;
3849;SDS011;1940;51.052;13.678;2023-05-10T04:14:40;3.37;;;2.67;;
3849;SDS011;1940;51.052;13.678;2023-05-10T04:17:06;4.10;;;2.70;;
3849;SDS011;1940;51.052;13.678;2023-05-10T04:19:31;3.57;;;2.50;;
3849;SDS011;1940;51.052;13.678;2023-05-10T04:21:57;3.53;;;2.50;;
3849;SDS011;1940;51.052;13.678;2023-05-10T04:24:23;3.97;;;2.30;;
3849;SDS011;1940;51.052;13.678;2023-05-10T04:26:49;2.80;;;2.30;;
3849;SDS011;1940;51.052;13.678;2023-05-10T04:29:14;6.23;;;2.40;;
3849;SDS011;1940;51.052;13.678;2023-05-10T04:31:40;5.23;;;2.20;;
3849;SDS011;1940;51.052;13.678;2023-05-10T04:34:05;2.97;;;2.23;;
3849;SDS011;1940;51.052;13.678;2023-05-10T04:36:31;2.17;;;1.90;;
3849;SDS011;1940;51.052;13.678;2023-05-10T04:38:58;5.33;;;2.13;;
3849;SDS011;1940;51.052;13.678;2023-05-10T04:41:24;3.07;;;2.40;;
3849;SDS011;1940;51.052;13.678;2023-05-10T04:43:50;4.63;;;2.20;;
3849;SDS011;1940;51.052;13.678;2023-05-10T04:46:16;2.83;;;2.50;;
3849;SDS011;1940;51.052;13.678;2023-05-10T04:48:41;3.70;;;2.17;;
3849;SDS011;1940;51.052;13.678;2023-05-10T04:51:07;3.03;;;2.47;;
3849;SDS011;1940;51.052;13.678;2023-05-10T04:53:32;5.83;;;2.43;;
3849;SDS011;1940;51.052;13.678;2023-05-10T04:55:58;2.97;;;2.17;;
3849;SDS011;1940;51.052;13.678;2023-05-10T04:58:23;3.20;;;2.50;;
3849;SDS011;1940;51.052;13.678;2023-05-10T05:00:49;5.03;;;2.17;;
3849;SDS011;1940;51.052;13.678;2023-05-10T05:03:14;3.43;;;1.90;;
3849;SDS011;1940;51.052;13.678;2023-05-10T05:05:40;3.87;;;1.93;;
3849;SDS011;1940;51.052;13.678;2023-05-10T05:08:05;3.00;;;2.27;;
3849;SDS011;1940;51.052;13.678;2023-05-10T05:10:31;2.63;;;2.13;;
3849;SDS011;1940;51.052;13.678;2023-05-10T05:12:56;10.63;;;2.63;;
3849;SDS011;1940;51.052;13.678;2023-05-10T05:15:22;2.67;;;2.20;;
3849;SDS011;1940;51.052;13.678;2023-05-10T05:17:47;10.90;;;1.93;;
3849;SDS011;1940;51.052;13.678;2023-05-10T05:20:13;4.27;;;2.40;;
3849;SDS011;1940;51.052;13.678;2023-05-10T05:22:38;3.30;;;2.10;;
3849;SDS011;1940;51.052;13.678;2023-05-10T05:25:04;2.97;;;2.10;;
3849;SDS011;1940;51.052;13.678;2023-05-10T05:27:30;3.10;;;2.07;;
3849;SDS011;1940;51.052;13.678;2023-05-10T05:29:56;4.27;;;2.53;;
3849;SDS011;1940;51.052;13.678;2023-05-10T05:32:22;3.40;;;2.20;;
3849;SDS011;1940;51.052;13.678;2023-05-10T05:34:48;2.77;;;2.00;;
3849;SDS011;1940;51.052;13.678;2023-05-10T05:37:14;2.00;;;1.80;;
3849;SDS011;1940;51.052;13.678;2023-05-10T05:39:40;4.87;;;2.20;;
3849;SDS011;1940;51.052;13.678;2023-05-10T05:42:07;3.23;;;2.03;;
3849;SDS011;1940;51.052;13.678;2023-05-10T05:44:33;2.80;;;2.10;;
3849;SDS011;1940;51.052;13.678;2023-05-10T05:46:58;2.43;;;1.90;;
3849;SDS011;1940;51.052;13.678;2023-05-10T05:49:24;2.47;;;2.10;;
3849;SDS011;1940;51.052;13.678;2023-05-10T05:51:49;4.77;;;2.30;;
3849;SDS011;1940;51.052;13.678;2023-05-10T05:54:15;3.23;;;2.40;;
3849;SDS011;1940;51.052;13.678;2023-05-10T05:56:41;6.63;;;1.90;;
3849;SDS011;1940;51.052;13.678;2023-05-10T05:59:06;3.57;;;2.97;;
3849;SDS011;1940;51.052;13.678;2023-05-10T06:01:32;2.17;;;1.73;;
3849;SDS011;1940;51.052;13.678;2023-05-10T06:03:58;7.00;;;2.10;;
3849;SDS011;1940;51.052;13.678;2023-05-10T06:06:23;3.20;;;2.30;;
3849;SDS011;1940;51.052;13.678;2023-05-10T06:08:49;9.20;;;2.50;;
3849;SDS011;1940;51.052;13.678;2023-05-10T06:11:14;5.70;;;2.00;;
3849;SDS011;1940;51.052;13.678;2023-05-10T06:13:40;2.53;;;2.30;;
3849;SDS011;1940;51.052;13.678;2023-05-10T06:16:07;5.70;;;2.20;;
3849;SDS011;1940;51.052;13.678;2023-05-10T06:18:32;5.00;;;2.50;;
3849;SDS011;1940;51.052;13.678;2023-05-10T06:20:58;3.60;;;2.20;;
3849;SDS011;1940;51.052;13.678;2023-05-10T06:23:23;5.23;;;2.03;;
3849;SDS011;1940;51.052;13.678;2023-05-10T06:25:50;3.83;;;2.30;;
3849;SDS011;1940;51.052;13.678;2023-05-10T06:28:16;8.20;;;2.03;;
3849;SDS011;1940;51.052;13.678;2023-05-10T06:30:41;3.60;;;2.40;;
3849;SDS011;1940;51.052;13.678;2023-05-10T06:33:07;3.60;;;2.33;;
3849;SDS011;1940;51.052;13.678;2023-05-10T06:35:33;4.60;;;2.10;;
3849;SDS011;1940;51.052;13.678;2023-05-10T06:37:58;3.80;;;2.20;;
3849;SDS011;1940;51.052;13.678;2023-05-10T06:40:24;5.10;;;2.40;;
3849;SDS011;1940;51.052;13.678;2023-05-10T06:42:49;6.00;;;2.33;;
3849;SDS011;1940;51.052;13.678;2023-05-10T06:45:15;7.50;;;2.60;;
3849;SDS011;1940;51.052;13.678;2023-05-10T06:47:41;3.50;;;2.30;;
3849;SDS011;1940;51.052;13.678;2023-05-10T06:50:09;4.47;;;2.80;;
3849;SDS011;1940;51.052;13.678;2023-05-10T06:52:38;2.57;;;2.13;;
3849;SDS011;1940;51.052;13.678;2023-05-10T06:55:04;3.60;;;2.53;;
3849;SDS011;1940;51.052;13.678;2023-05-10T06:57:30;3.00;;;2.00;;
3849;SDS011;1940;51.052;13.678;2023-05-10T06:59:56;2.40;;;2.07;;
3849;SDS011;1940;51.052;13.678;2023-05-10T07:02:25;3.13;;;2.20;;
3849;SDS011;1940;51.052;13.678;2023-05-10T07:04:51;4.90;;;2.50;;
3849;SDS011;1940;51.052;13.678;2023-05-10T07:07:17;4.20;;;2.40;;
3849;SDS011;1940;51.052;13.678;2023-05-10T07:09:43;4.87;;;2.50;;
3849;SDS011;1940;51.052;13.678;2023-05-10T07:12:08;3.00;;;2.10;;
3849;SDS011;1940;51.052;13.678;2023-05-10T07:14:34;3.57;;;2.50;;
3849;SDS011;1940;51.052;13.678;2023-05-10T07:16:59;2.97;;;2.20;;
3849;SDS011;1940;51.052;13.678;2023-05-10T07:19:25;3.67;;;2.40;;
3849;SDS011;1940;51.052;13.678;2023-05-10T07:21:50;3.30;;;2.40;;
3849;SDS011;1940;51.052;13.678;2023-05-10T07:24:16;3.50;;;2.53;;
3849;SDS011;1940;51.052;13.678;2023-05-10T07:26:41;6.53;;;2.33;;
3849;SDS011;1940;51.052;13.678;2023-05-10T07:29:07;7.83;;;2.73;;
3849;SDS011;1940;51.052;13.678;2023-05-10T07:31:32;3.73;;;2.53;;
3849;SDS011;1940;51.052;13.678;2023-05-10T07:33:58;7.07;;;2.37;;
3849;SDS011;1940;51.052;13.678;2023-05-10T07:36:23;2.93;;;2.60;;
3849;SDS011;1940;51.052;13.678;2023-05-10T07:38:49;4.47;;;2.33;;
3849;SDS011;1940;51.052;13.678;2023-05-10T07:41:14;3.20;;;2.30;;
3849;SDS011;1940;51.052;13.678;2023-05-10T07:43:40;5.40;;;2.43;;
3849;SDS011;1940;51.052;13.678;2023-05-10T07:46:05;6.60;;;2.67;;
3849;SDS011;1940;51.052;13.678;2023-05-10T07:48:31;3.23;;;2.70;;
3849;SDS011;1940;51.052;13.678;2023-05-10T07:50:56;5.60;;;2.63;;
3849;SDS011;1940;51.052;13.678;2023-05-10T07:53:22;4.43;;;2.47;;
3849;SDS011;1940;51.052;13.678;2023-05-10T07:55:51;4.33;;;2.33;;
3849;SDS011;1940;51.052;13.678;2023-05-10T07:58:19;4.13;;;2.40;;
3849;SDS011;1940;51.052;13.678;2023-05-10T08:00:44;3.03;;;2.43;;
3849;SDS011;1940;51.052;13.678;2023-05-10T08:03:10;3.40;;;2.20;;
3849;SDS011;1940;51.052;13.678;2023-05-10T08:05:35;3.43;;;2.47;;
3849;SDS011;1940;51.052;13.678;2023-05-10T08:08:01;5.60;;;2.60;;
3849;SDS011;1940;51.052;13.678;2023-05-10T08:10:26;3.70;;;2.80;;
3849;SDS011;1940;51.052;13.678;2023-05-10T08:12:52;3.30;;;2.70;;
3849;SDS011;1940;51.052;13.678;2023-05-10T08:15:17;7.03;;;2.43;;
3849;SDS011;1940;51.052;13.678;2023-05-10T08:17:43;4.10;;;2.40;;
3849;SDS011;1940;51.052;13.678;2023-05-10T08:20:09;2.43;;;2.20;;
3849;SDS011;1940;51.052;13.678;2023-05-10T08:22:34;4.40;;;2.80;;
3849;SDS011;1940;51.052;13.678;2023-05-10T08:25:00;2.60;;;2.30;;
3849;SDS011;1940;51.052;13.678;2023-05-10T08:27:25;4.73;;;2.70;;
3849;SDS011;1940;51.052;13.678;2023-05-10T08:29:51;5.03;;;2.70;;
3849;SDS011;1940;51.052;13.678;2023-05-10T08:32:16;8.13;;;3.47;;
3849;SDS011;1940;51.052;13.678;2023-05-10T08:34:42;5.10;;;2.50;;
3849;SDS011;1940;51.052;13.678;2023-05-10T08:37:08;2.73;;;2.50;;
3849;SDS011;1940;51.052;13.678;2023-05-10T08:39:34;3.23;;;2.70;;
3849;SDS011;1940;51.052;13.678;2023-05-10T08:42:01;3.40;;;2.57;;
3849;SDS011;1940;51.052;13.678;2023-05-10T08:44:29;8.67;;;2.70;;
3849;SDS011;1940;51.052;13.678;2023-05-10T08:46:57;4.57;;;2.83;;
3849;SDS011;1940;51.052;13.678;2023-05-10T08:49:23;7.70;;;2.87;;
3849;SDS011;1940;51.052;13.678;2023-05-10T08:51:53;3.80;;;2.70;;
3849;SDS011;1940;51.052;13.678;2023-05-10T08:54:20;5.30;;;2.60;;
3849;SDS011;1940;51.052;13.678;2023-05-10T08:56:46;2.90;;;2.43;;
3849;SDS011;1940;51.052;13.678;2023-05-10T08:59:12;7.30;;;2.67;;
3849;SDS011;1940;51.052;13.678;2023-05-10T09:01:39;3.77;;;2.30;;
3849;SDS011;1940;51.052;13.678;2023-05-10T09:04:06;3.07;;;2.30;;
3849;SDS011;1940;51.052;13.678;2023-05-10T09:06:31;5.10;;;2.60;;
3849;SDS011;1940;51.052;13.678;2023-05-10T09:08:58;3.73;;;2.57;;
3849;SDS011;1940;51.052;13.678;2023-05-10T09:11:25;3.70;;;2.40;;
3849;SDS011;1940;51.052;13.678;2023-05-10T09:16:59;3.30;;;3.00;;
3849;SDS011;1940;51.052;13.678;2023-05-10T09:19:39;4.20;;;3.03;;
3849;SDS011;1940;51.052;13.678;2023-05-10T09:22:21;2.83;;;2.20;;
3849;SDS011;1940;51.052;13.678;2023-05-10T09:27:38;3.87;;;2.70;;
3849;SDS011;1940;51.052;13.678;2023-05-10T09:30:04;7.10;;;2.97;;
3849;SDS011;1940;51.052;13.678;2023-05-10T09:32:38;3.20;;;2.63;;
3849;SDS011;1940;51.052;13.678;2023-05-10T09:35:15;5.33;;;2.70;;
3849;SDS011;1940;51.052;13.678;2023-05-10T09:37:42;6.00;;;2.97;;
3849;SDS011;1940;51.052;13.678;2023-05-10T09:40:13;5.40;;;2.63;;
3849;SDS011;1940;51.052;13.678;2023-05-10T09:42:41;4.23;;;3.20;;
3849;SDS011;1940;51.052;13.678;2023-05-10T09:45:08;2.80;;;2.47;;
3849;SDS011;1940;51.052;13.678;2023-05-10T09:47:34;3.03;;;2.67;;
3849;SDS011;1940;51.052;13.678;2023-05-10T09:50:01;6.43;;;4.30;;
3849;SDS011;1940;51.052;13.678;2023-05-10T09:52:30;3.37;;;2.53;;
3849;SDS011;1940;51.052;13.678;2023-05-10T09:55:22;3.10;;;2.70;;
3849;SDS011;1940;51.052;13.678;2023-05-10T09:57:58;3.33;;;2.80;;
3849;SDS011;1940;51.052;13.678;2023-05-10T10:00:25;4.43;;;3.07;;
3849;SDS011;1940;51.052;13.678;2023-05-10T10:02:55;2.47;;;2.27;;
3849;SDS011;1940;51.052;13.678;2023-05-10T10:05:27;3.60;;;2.90;;
3849;SDS011;1940;51.052;13.678;2023-05-10T10:08:05;3.50;;;3.20;;
3849;SDS011;1940;51.052;13.678;2023-05-10T10:10:31;4.27;;;2.73;;
3849;SDS011;1940;51.052;13.678;2023-05-10T10:12:58;3.40;;;2.80;;
3849;SDS011;1940;51.052;13.678;2023-05-10T10:15:30;10.80;;;2.90;;
3849;SDS011;1940;51.052;13.678;2023-05-10T10:17:57;3.30;;;3.00;;
3849;SDS011;1940;51.052;13.678;2023-05-10T10:20:26;3.30;;;2.87;;
3849;SDS011;1940;51.052;13.678;2023-05-10T10:22:53;9.50;;;3.17;;
3849;SDS011;1940;51.052;13.678;2023-05-10T10:25:19;4.83;;;2.83;;
3849;SDS011;1940;51.052;13.678;2023-05-10T10:30:23;7.77;;;3.00;;
3849;SDS011;1940;51.052;13.678;2023-05-10T10:35:35;4.00;;;2.90;;
3849;SDS011;1940;51.052;13.678;2023-05-10T10:38:01;4.20;;;3.00;;
3849;SDS011;1940;51.052;13.678;2023-05-10T10:40:30;3.77;;;3.20;;
3849;SDS011;1940;51.052;13.678;2023-05-10T10:42:58;3.87;;;2.90;;
3849;SDS011;1940;51.052;13.678;2023-05-10T10:45:43;3.00;;;2.70;;
3849;SDS011;1940;51.052;13.678;2023-05-10T10:48:19;3.93;;;3.20;;
3849;SDS011;1940;51.052;13.678;2023-05-10T10:50:46;5.80;;;3.20;;
3849;SDS011;1940;51.052;13.678;2023-05-10T10:53:12;9.03;;;3.40;;
3849;SDS011;1940;51.052;13.678;2023-05-10T10:55:47;4.73;;;2.80;;
3849;SDS011;1940;51.052;13.678;2023-05-10T10:58:28;10.93;;;3.50;;
3849;SDS011;1940;51.052;13.678;2023-05-10T11:01:09;3.27;;;2.90;;
3849;SDS011;1940;51.052;13.678;2023-05-10T11:03:36;4.20;;;2.87;;
3849;SDS011;1940;51.052;13.678;2023-05-10T11:06:01;4.10;;;3.27;;
3849;SDS011;1940;51.052;13.678;2023-05-10T11:13:32;5.57;;;2.80;;
3849;SDS011;1940;51.052;13.678;2023-05-10T11:18:58;4.90;;;2.80;;
3849;SDS011;1940;51.052;13.678;2023-05-10T11:21:32;5.20;;;2.93;;
3849;SDS011;1940;51.052;13.678;2023-05-10T11:23:58;3.93;;;3.10;;
3849;SDS011;1940;51.052;13.678;2023-05-10T11:26:31;9.53;;;2.97;;
3849;SDS011;1940;51.052;13.678;2023-05-10T11:28:58;3.90;;;3.27;;
3849;SDS011;1940;51.052;13.678;2023-05-10T11:31:25;4.50;;;3.60;;
3849;SDS011;1940;51.052;13.678;2023-05-10T11:33:55;4.80;;;3.80;;
3849;SDS011;1940;51.052;13.678;2023-05-10T11:36:22;8.83;;;3.63;;
3849;SDS011;1940;51.052;13.678;2023-05-10T11:38:52;8.33;;;4.10;;
3849;SDS011;1940;51.052;13.678;2023-05-10T11:41:19;7.73;;;3.30;;
3849;SDS011;1940;51.052;13.678;2023-05-10T11:43:49;4.70;;;3.63;;
3849;SDS011;1940;51.052;13.678;2023-05-10T11:46:19;4.23;;;3.20;;
3849;SDS011;1940;51.052;13.678;2023-05-10T11:48:46;6.83;;;3.53;;
3849;SDS011;1940;51.052;13.678;2023-05-10T11:51:14;4.70;;;3.37;;
3849;SDS011;1940;51.052;13.678;2023-05-10T11:53:40;4.33;;;3.30;;
3849;SDS011;1940;51.052;13.678;2023-05-10T11:56:06;5.43;;;3.27;;
3849;SDS011;1940;51.052;13.678;2023-05-10T11:58:33;5.47;;;3.43;;
3849;SDS011;1940;51.052;13.678;2023-05-10T12:00:59;8.27;;;3.23;;
3849;SDS011;1940;51.052;13.678;2023-05-10T12:03:26;6.70;;;3.10;;
3849;SDS011;1940;51.052;13.678;2023-05-10T12:05:53;4.20;;;3.40;;
3849;SDS011;1940;51.052;13.678;2023-05-10T12:08:20;4.03;;;3.20;;
3849;SDS011;1940;51.052;13.678;2023-05-10T12:10:50;4.90;;;3.40;;
3849;SDS011;1940;51.052;13.678;2023-05-10T12:13:16;3.43;;;2.90;;
3849;SDS011;1940;51.052;13.678;2023-05-10T12:15:43;4.37;;;3.67;;
3849;SDS011;1940;51.052;13.678;2023-05-10T12:18:10;5.83;;;4.00;;
3849;SDS011;1940;51.052;13.678;2023-05-10T12:20:36;6.33;;;3.67;;
3849;SDS011;1940;51.052;13.678;2023-05-10T12:23:02;5.90;;;3.60;;
3849;SDS011;1940;51.052;13.678;2023-05-10T12:25:32;4.03;;;3.10;;
3849;SDS011;1940;51.052;13.678;2023-05-10T12:28:00;9.90;;;3.53;;
3849;SDS011;1940;51.052;13.678;2023-05-10T12:30:28;4.63;;;3.43;;
3849;SDS011;1940;51.052;13.678;2023-05-10T12:32:59;8.30;;;3.43;;
3849;SDS011;1940;51.052;13.678;2023-05-10T12:35:46;5.77;;;3.60;;
3849;SDS011;1940;51.052;13.678;2023-05-10T12:40:56;8.90;;;3.90;;
3849;SDS011;1940;51.052;13.678;2023-05-10T12:43:22;4.80;;;3.67;;
3849;SDS011;1940;51.052;13.678;2023-05-10T12:45:48;4.10;;;3.40;;
3849;SDS011;1940;51.052;13.678;2023-05-10T12:48:14;5.20;;;3.30;;
3849;SDS011;1940;51.052;13.678;2023-05-10T12:50:40;4.13;;;3.30;;
3849;SDS011;1940;51.052;13.678;2023-05-10T12:53:05;4.33;;;3.20;;
3849;SDS011;1940;51.052;13.678;2023-05-10T12:55:31;4.40;;;3.50;;
3849;SDS011;1940;51.052;13.678;2023-05-10T12:57:56;3.90;;;3.40;;
3849;SDS011;1940;51.052;13.678;2023-05-10T13:00:22;6.30;;;3.70;;
3849;SDS011;1940;51.052;13.678;2023-05-10T13:02:47;3.73;;;3.23;;
3849;SDS011;1940;51.052;13.678;2023-05-10T13:05:13;5.10;;;3.17;;
3849;SDS011;1940;51.052;13.678;2023-05-10T13:07:38;4.17;;;3.57;;
3849;SDS011;1940;51.052;13.678;2023-05-10T13:10:05;5.50;;;3.53;;
3849;SDS011;1940;51.052;13.678;2023-05-10T13:12:31;4.83;;;3.30;;
3849;SDS011;1940;51.052;13.678;2023-05-10T13:14:56;4.27;;;3.30;;
3849;SDS011;1940;51.052;13.678;2023-05-10T13:17:22;3.40;;;2.70;;
3849;SDS011;1940;51.052;13.678;2023-05-10T13:19:47;5.20;;;3.67;;
3849;SDS011;1940;51.052;13.678;2023-05-10T13:22:13;3.93;;;3.40;;
3849;SDS011;1940;51.052;13.678;2023-05-10T13:24:38;5.13;;;3.03;;
3849;SDS011;1940;51.052;13.678;2023-05-10T13:27:04;6.47;;;3.80;;
3849;SDS011;1940;51.052;13.678;2023-05-10T13:29:29;4.43;;;3.17;;
3849;SDS011;1940;51.052;13.678;2023-05-10T13:31:55;8.30;;;3.40;;
3849;SDS011;1940;51.052;13.678;2023-05-10T13:34:20;4.90;;;2.90;;
3849;SDS011;1940;51.052;13.678;2023-05-10T13:36:46;6.13;;;3.33;;
3849;SDS011;1940;51.052;13.678;2023-05-10T13:39:12;5.23;;;3.40;;
3849;SDS011;1940;51.052;13.678;2023-05-10T13:41:38;4.80;;;3.50;;
3849;SDS011;1940;51.052;13.678;2023-05-10T13:44:04;4.90;;;3.80;;
3849;SDS011;1940;51.052;13.678;2023-05-10T13:46:29;4.77;;;3.87;;
3849;SDS011;1940;51.052;13.678;2023-05-10T13:48:55;7.43;;;3.90;;
3849;SDS011;1940;51.052;13.678;2023-05-10T13:51:21;7.00;;;3.70;;
3849;SDS011;1940;51.052;13.678;2023-05-10T13:53:47;4.33;;;2.90;;
3849;SDS011;1940;51.052;13.678;2023-05-10T13:56:13;10.40;;;3.63;;
3849;SDS011;1940;51.052;13.678;2023-05-10T13:58:39;5.33;;;3.60;;
3849;SDS011;1940;51.052;13.678;2023-05-10T14:01:04;4.80;;;3.27;;
3849;SDS011;1940;51.052;13.678;2023-05-10T14:03:30;10.20;;;4.17;;
3849;SDS011;1940;51.052;13.678;2023-05-10T14:05:56;11.87;;;3.50;;
3849;SDS011;1940;51.052;13.678;2023-05-10T14:08:21;7.63;;;3.83;;
3849;SDS011;1940;51.052;13.678;2023-05-10T14:10:47;7.40;;;3.20;;
3849;SDS011;1940;51.052;13.678;2023-05-10T14:13:13;6.83;;;3.20;;
3849;SDS011;1940;51.052;13.678;2023-05-10T14:15:40;6.60;;;3.20;;
3849;SDS011;1940;51.052;13.678;2023-05-10T14:18:05;8.03;;;3.50;;
3849;SDS011;1940;51.052;13.678;2023-05-10T14:20:31;6.50;;;3.90;;
3849;SDS011;1940;51.052;13.678;2023-05-10T14:22:58;6.47;;;4.10;;
3849;SDS011;1940;51.052;13.678;2023-05-10T14:25:24;6.73;;;4.23;;
3849;SDS011;1940;51.052;13.678;2023-05-10T14:27:50;8.50;;;3.90;;
3849;SDS011;1940;51.052;13.678;2023-05-10T14:30:16;7.07;;;3.60;;
3849;SDS011;1940;51.052;13.678;2023-05-10T14:32:41;4.43;;;3.70;;
3849;SDS011;1940;51.052;13.678;2023-05-10T14:35:07;14.90;;;4.40;;
3849;SDS011;1940;51.052;13.678;2023-05-10T14:37:32;7.57;;;4.57;;
3849;SDS011;1940;51.052;13.678;2023-05-10T14:39:58;6.03;;;4.70;;
3849;SDS011;1940;51.052;13.678;2023-05-10T14:42:23;6.83;;;3.67;;
3849;SDS011;1940;51.052;13.678;2023-05-10T14:44:49;4.20;;;3.27;;
3849;SDS011;1940;51.052;13.678;2023-05-10T14:47:14;4.43;;;3.23;;
3849;SDS011;1940;51.052;13.678;2023-05-10T14:49:40;5.73;;;3.47;;
3849;SDS011;1940;51.052;13.678;2023-05-10T14:52:06;3.90;;;3.20;;
3849;SDS011;1940;51.052;13.678;2023-05-10T14:54:31;4.00;;;3.27;;
3849;SDS011;1940;51.052;13.678;2023-05-10T14:56:58;4.27;;;3.20;;
3849;SDS011;1940;51.052;13.678;2023-05-10T14:59:25;6.40;;;3.30;;
3849;SDS011;1940;51.052;13.678;2023-05-10T15:01:50;4.10;;;3.30;;
3849;SDS011;1940;51.052;13.678;2023-05-10T15:04:16;8.93;;;3.47;;
3849;SDS011;1940;51.052;13.678;2023-05-10T15:06:42;5.70;;;3.40;;
3849;SDS011;1940;51.052;13.678;2023-05-10T15:09:08;4.97;;;2.87;;
3849;SDS011;1940;51.052;13.678;2023-05-10T15:11:33;9.77;;;3.70;;
3849;SDS011;1940;51.052;13.678;2023-05-10T15:13:59;3.33;;;3.00;;
3849;SDS011;1940;51.052;13.678;2023-05-10T15:16:25;4.30;;;2.80;;
3849;SDS011;1940;51.052;13.678;2023-05-10T15:18:51;6.23;;;3.10;;
3849;SDS011;1940;51.052;13.678;2023-05-10T15:21:16;3.90;;;3.17;;
3849;SDS011;1940;51.052;13.678;2023-05-10T15:23:42;5.97;;;3.13;;
3849;SDS011;1940;51.052;13.678;2023-05-10T15:26:07;3.13;;;2.50;;
3849;SDS011;1940;51.052;13.678;2023-05-10T15:28:33;5.43;;;3.30;;
3849;SDS011;1940;51.052;13.678;2023-05-10T15:30:58;6.00;;;3.07;;
3849;SDS011;1940;51.052;13.678;2023-05-10T15:33:25;3.40;;;2.90;;
3849;SDS011;1940;51.052;13.678;2023-05-10T15:35:52;5.50;;;2.83;;